sensor_id;sensor_type;location;lat;lon;timestamp;P1;durP1;ratioP1;P2;durP2;ratioP2
1436;SDS011;712;51.026;13.792;2024-01-27T00:01:11;8.25;;;0.88;;
1436;SDS011;712;51.026;13.792;2024-01-27T00:03:36;7.60;;;0.85;;
1436;SDS011;712;51.026;13.792;2024-01-27T00:06:01;5.72;;;0.85;;
1436;SDS011;712;51.026;13.792;2024-01-27T00:08:27;9.00;;;0.77;;
1436;SDS011;712;51.026;13.792;2024-01-27T00:10:52;3.73;;;0.67;;
1436;SDS011;712;51.026;13.792;2024-01-27T00:13:17;5.28;;;0.60;;
1436;SDS011;712;51.026;13.792;2024-01-27T00:15:42;9.27;;;0.90;;
1436;SDS011;712;51.026;13.792;2024-01-27T00:18:08;6.90;;;0.83;;
1436;SDS011;712;51.026;13.792;2024-01-27T00:20:33;6.32;;;1.02;;
1436;SDS011;712;51.026;13.792;2024-01-27T00:22:58;5.23;;;1.00;;
1436;SDS011;712;51.026;13.792;2024-01-27T00:25:23;4.50;;;0.70;;
1436;SDS011;712;51.026;13.792;2024-01-27T00:27:48;8.37;;;1.00;;
1436;SDS011;712;51.026;13.792;2024-01-27T00:30:13;6.70;;;1.00;;
1436;SDS011;712;51.026;13.792;2024-01-27T00:32:39;7.40;;;1.10;;
1436;SDS011;712;51.026;13.792;2024-01-27T00:35:04;6.78;;;0.80;;
1436;SDS011;712;51.026;13.792;2024-01-27T00:37:29;7.32;;;1.08;;
1436;SDS011;712;51.026;13.792;2024-01-27T00:39:54;9.53;;;1.10;;
1436;SDS011;712;51.026;13.792;2024-01-27T00:42:19;8.80;;;1.20;;
1436;SDS011;712;51.026;13.792;2024-01-27T00:44:49;5.50;;;1.00;;
1436;SDS011;712;51.026;13.792;2024-01-27T00:47:14;7.47;;;1.07;;
1436;SDS011;712;51.026;13.792;2024-01-27T00:49:39;6.63;;;1.00;;
1436;SDS011;712;51.026;13.792;2024-01-27T00:52:04;4.63;;;0.90;;
1436;SDS011;712;51.026;13.792;2024-01-27T00:54:29;8.38;;;1.00;;
1436;SDS011;712;51.026;13.792;2024-01-27T00:56:55;6.60;;;0.90;;
1436;SDS011;712;51.026;13.792;2024-01-27T00:59:20;11.02;;;0.90;;
1436;SDS011;712;51.026;13.792;2024-01-27T01:01:45;4.85;;;0.88;;
1436;SDS011;712;51.026;13.792;2024-01-27T01:04:10;4.35;;;0.80;;
1436;SDS011;712;51.026;13.792;2024-01-27T01:06:35;5.93;;;0.87;;
1436;SDS011;712;51.026;13.792;2024-01-27T01:09:03;5.75;;;0.75;;
1436;SDS011;712;51.026;13.792;2024-01-27T01:11:29;4.97;;;0.68;;
1436;SDS011;712;51.026;13.792;2024-01-27T01:13:54;8.02;;;0.82;;
1436;SDS011;712;51.026;13.792;2024-01-27T01:16:19;7.65;;;0.95;;
1436;SDS011;712;51.026;13.792;2024-01-27T01:18:44;3.60;;;0.80;;
1436;SDS011;712;51.026;13.792;2024-01-27T01:21:10;5.03;;;1.02;;
1436;SDS011;712;51.026;13.792;2024-01-27T01:23:35;7.05;;;1.30;;
1436;SDS011;712;51.026;13.792;2024-01-27T01:26:00;5.07;;;0.67;;
1436;SDS011;712;51.026;13.792;2024-01-27T01:28:25;7.93;;;0.90;;
1436;SDS011;712;51.026;13.792;2024-01-27T01:30:50;5.95;;;1.13;;
1436;SDS011;712;51.026;13.792;2024-01-27T01:33:16;3.50;;;0.60;;
1436;SDS011;712;51.026;13.792;2024-01-27T01:35:41;7.13;;;0.90;;
1436;SDS011;712;51.026;13.792;2024-01-27T01:38:06;6.23;;;0.90;;
1436;SDS011;712;51.026;13.792;2024-01-27T01:40:31;6.77;;;1.00;;
1436;SDS011;712;51.026;13.792;2024-01-27T01:42:58;8.68;;;1.05;;
1436;SDS011;712;51.026;13.792;2024-01-27T01:45:23;5.25;;;0.90;;
1436;SDS011;712;51.026;13.792;2024-01-27T01:47:48;7.68;;;1.20;;
1436;SDS011;712;51.026;13.792;2024-01-27T01:50:13;8.83;;;0.80;;
1436;SDS011;712;51.026;13.792;2024-01-27T01:52:39;6.45;;;0.80;;
1436;SDS011;712;51.026;13.792;2024-01-27T01:55:04;6.78;;;0.90;;
1436;SDS011;712;51.026;13.792;2024-01-27T01:57:30;7.75;;;1.05;;
1436;SDS011;712;51.026;13.792;2024-01-27T01:59:55;5.70;;;0.93;;
1436;SDS011;712;51.026;13.792;2024-01-27T02:02:20;11.50;;;1.13;;
1436;SDS011;712;51.026;13.792;2024-01-27T02:04:46;3.42;;;0.60;;
1436;SDS011;712;51.026;13.792;2024-01-27T02:07:11;7.00;;;0.90;;
1436;SDS011;712;51.026;13.792;2024-01-27T02:09:36;6.10;;;0.70;;
1436;SDS011;712;51.026;13.792;2024-01-27T02:12:01;8.60;;;1.27;;
1436;SDS011;712;51.026;13.792;2024-01-27T02:14:27;5.20;;;1.00;;
1436;SDS011;712;51.026;13.792;2024-01-27T02:16:54;6.60;;;0.85;;
1436;SDS011;712;51.026;13.792;2024-01-27T02:19:19;5.25;;;0.75;;
1436;SDS011;712;51.026;13.792;2024-01-27T02:21:44;9.50;;;1.10;;
1436;SDS011;712;51.026;13.792;2024-01-27T02:24:09;9.63;;;1.33;;
1436;SDS011;712;51.026;13.792;2024-01-27T02:26:35;8.73;;;1.02;;
1436;SDS011;712;51.026;13.792;2024-01-27T02:29:00;5.70;;;0.80;;
1436;SDS011;712;51.026;13.792;2024-01-27T02:31:25;8.95;;;1.00;;
1436;SDS011;712;51.026;13.792;2024-01-27T02:33:50;8.27;;;1.45;;
1436;SDS011;712;51.026;13.792;2024-01-27T02:36:15;10.13;;;1.30;;
1436;SDS011;712;51.026;13.792;2024-01-27T02:38:41;11.02;;;1.05;;
1436;SDS011;712;51.026;13.792;2024-01-27T02:41:06;4.78;;;0.80;;
1436;SDS011;712;51.026;13.792;2024-01-27T02:43:31;9.13;;;1.33;;
1436;SDS011;712;51.026;13.792;2024-01-27T02:45:56;6.93;;;0.93;;
1436;SDS011;712;51.026;13.792;2024-01-27T02:48:22;5.22;;;0.90;;
1436;SDS011;712;51.026;13.792;2024-01-27T02:50:47;6.72;;;1.15;;
1436;SDS011;712;51.026;13.792;2024-01-27T02:53:13;8.30;;;1.40;;
1436;SDS011;712;51.026;13.792;2024-01-27T02:55:38;6.90;;;1.20;;
1436;SDS011;712;51.026;13.792;2024-01-27T02:58:03;8.20;;;0.85;;
1436;SDS011;712;51.026;13.792;2024-01-27T03:00:28;8.93;;;1.20;;
1436;SDS011;712;51.026;13.792;2024-01-27T03:02:53;7.97;;;1.27;;
1436;SDS011;712;51.026;13.792;2024-01-27T03:05:19;8.70;;;0.95;;
1436;SDS011;712;51.026;13.792;2024-01-27T03:07:44;8.68;;;1.02;;
1436;SDS011;712;51.026;13.792;2024-01-27T03:10:10;9.85;;;1.17;;
1436;SDS011;712;51.026;13.792;2024-01-27T03:12:35;8.45;;;1.73;;
1436;SDS011;712;51.026;13.792;2024-01-27T03:15:01;8.10;;;1.40;;
1436;SDS011;712;51.026;13.792;2024-01-27T03:17:26;8.70;;;1.10;;
1436;SDS011;712;51.026;13.792;2024-01-27T03:19:51;7.37;;;1.47;;
1436;SDS011;712;51.026;13.792;2024-01-27T03:22:16;10.40;;;1.20;;
1436;SDS011;712;51.026;13.792;2024-01-27T03:24:41;5.80;;;1.13;;
1436;SDS011;712;51.026;13.792;2024-01-27T03:27:06;7.40;;;0.90;;
1436;SDS011;712;51.026;13.792;2024-01-27T03:29:32;12.10;;;1.20;;
1436;SDS011;712;51.026;13.792;2024-01-27T03:31:57;9.00;;;0.95;;
1436;SDS011;712;51.026;13.792;2024-01-27T03:34:22;7.50;;;0.90;;
1436;SDS011;712;51.026;13.792;2024-01-27T03:36:49;11.02;;;1.35;;
1436;SDS011;712;51.026;13.792;2024-01-27T03:39:15;7.70;;;1.30;;
1436;SDS011;712;51.026;13.792;2024-01-27T03:41:40;9.60;;;0.97;;
1436;SDS011;712;51.026;13.792;2024-01-27T03:44:05;9.25;;;1.55;;
1436;SDS011;712;51.026;13.792;2024-01-27T03:46:30;7.80;;;1.33;;
1436;SDS011;712;51.026;13.792;2024-01-27T03:48:55;8.95;;;0.90;;
1436;SDS011;712;51.026;13.792;2024-01-27T03:51:21;9.20;;;1.55;;
1436;SDS011;712;51.026;13.792;2024-01-27T03:53:47;7.75;;;0.90;;
1436;SDS011;712;51.026;13.792;2024-01-27T03:56:12;6.32;;;0.90;;
1436;SDS011;712;51.026;13.792;2024-01-27T03:58:38;6.10;;;0.88;;
1436;SDS011;712;51.026;13.792;2024-01-27T04:01:03;7.70;;;0.93;;
1436;SDS011;712;51.026;13.792;2024-01-27T04:03:29;11.02;;;1.20;;
1436;SDS011;712;51.026;13.792;2024-01-27T04:05:54;9.32;;;1.00;;
1436;SDS011;712;51.026;13.792;2024-01-27T04:08:19;10.07;;;1.33;;
1436;SDS011;712;51.026;13.792;2024-01-27T04:10:44;9.13;;;1.00;;
1436;SDS011;712;51.026;13.792;2024-01-27T04:13:09;8.83;;;0.97;;
1436;SDS011;712;51.026;13.792;2024-01-27T04:15:34;10.07;;;1.40;;
1436;SDS011;712;51.026;13.792;2024-01-27T04:18:06;8.10;;;1.00;;
1436;SDS011;712;51.026;13.792;2024-01-27T04:20:33;7.45;;;1.20;;
1436;SDS011;712;51.026;13.792;2024-01-27T04:22:58;10.83;;;1.27;;
1436;SDS011;712;51.026;13.792;2024-01-27T04:25:23;11.90;;;1.25;;
1436;SDS011;712;51.026;13.792;2024-01-27T04:27:48;8.47;;;0.90;;
1436;SDS011;712;51.026;13.792;2024-01-27T04:30:13;12.82;;;1.30;;
1436;SDS011;712;51.026;13.792;2024-01-27T04:32:38;8.83;;;1.00;;
1436;SDS011;712;51.026;13.792;2024-01-27T04:35:04;8.87;;;1.37;;
1436;SDS011;712;51.026;13.792;2024-01-27T04:37:29;14.40;;;1.50;;
1436;SDS011;712;51.026;13.792;2024-01-27T04:39:54;10.93;;;1.00;;
1436;SDS011;712;51.026;13.792;2024-01-27T04:42:19;12.38;;;1.50;;
1436;SDS011;712;51.026;13.792;2024-01-27T04:44:45;9.53;;;1.20;;
1436;SDS011;712;51.026;13.792;2024-01-27T04:47:10;9.18;;;1.33;;
1436;SDS011;712;51.026;13.792;2024-01-27T04:49:35;8.53;;;1.10;;
1436;SDS011;712;51.026;13.792;2024-01-27T04:52:00;9.00;;;0.97;;
1436;SDS011;712;51.026;13.792;2024-01-27T04:54:25;8.13;;;1.07;;
1436;SDS011;712;51.026;13.792;2024-01-27T04:56:51;6.22;;;1.17;;
1436;SDS011;712;51.026;13.792;2024-01-27T04:59:16;10.07;;;1.10;;
1436;SDS011;712;51.026;13.792;2024-01-27T05:01:44;7.87;;;1.50;;
1436;SDS011;712;51.026;13.792;2024-01-27T05:04:09;12.32;;;1.38;;
1436;SDS011;712;51.026;13.792;2024-01-27T05:06:34;8.90;;;1.15;;
1436;SDS011;712;51.026;13.792;2024-01-27T05:08:59;12.48;;;1.20;;
1436;SDS011;712;51.026;13.792;2024-01-27T05:11:25;11.45;;;1.50;;
1436;SDS011;712;51.026;13.792;2024-01-27T05:13:50;6.88;;;1.10;;
1436;SDS011;712;51.026;13.792;2024-01-27T05:16:15;11.57;;;1.33;;
1436;SDS011;712;51.026;13.792;2024-01-27T05:18:41;9.30;;;1.20;;
1436;SDS011;712;51.026;13.792;2024-01-27T05:21:06;9.53;;;1.23;;
1436;SDS011;712;51.026;13.792;2024-01-27T05:23:31;9.80;;;1.10;;
1436;SDS011;712;51.026;13.792;2024-01-27T05:25:56;8.93;;;1.30;;
1436;SDS011;712;51.026;13.792;2024-01-27T05:28:21;10.68;;;1.10;;
1436;SDS011;712;51.026;13.792;2024-01-27T05:30:46;12.73;;;1.20;;
1436;SDS011;712;51.026;13.792;2024-01-27T05:33:11;7.30;;;1.13;;
1436;SDS011;712;51.026;13.792;2024-01-27T05:35:37;6.43;;;0.82;;
1436;SDS011;712;51.026;13.792;2024-01-27T05:38:02;8.13;;;0.90;;
1436;SDS011;712;51.026;13.792;2024-01-27T05:40:27;7.37;;;0.97;;
1436;SDS011;712;51.026;13.792;2024-01-27T05:42:52;9.07;;;0.88;;
1436;SDS011;712;51.026;13.792;2024-01-27T05:45:17;9.20;;;1.15;;
1436;SDS011;712;51.026;13.792;2024-01-27T05:47:42;12.10;;;1.60;;
1436;SDS011;712;51.026;13.792;2024-01-27T05:50:08;8.80;;;1.10;;
1436;SDS011;712;51.026;13.792;2024-01-27T05:52:34;9.88;;;1.20;;
1436;SDS011;712;51.026;13.792;2024-01-27T05:54:59;8.48;;;0.90;;
1436;SDS011;712;51.026;13.792;2024-01-27T05:57:24;7.93;;;1.30;;
1436;SDS011;712;51.026;13.792;2024-01-27T05:59:49;7.78;;;0.70;;
1436;SDS011;712;51.026;13.792;2024-01-27T06:02:14;12.18;;;1.08;;
1436;SDS011;712;51.026;13.792;2024-01-27T06:04:42;10.20;;;1.00;;
1436;SDS011;712;51.026;13.792;2024-01-27T06:07:07;9.80;;;1.00;;
1436;SDS011;712;51.026;13.792;2024-01-27T06:09:33;7.07;;;0.90;;
1436;SDS011;712;51.026;13.792;2024-01-27T06:11:59;11.02;;;1.00;;
1436;SDS011;712;51.026;13.792;2024-01-27T06:14:24;9.48;;;1.10;;
1436;SDS011;712;51.026;13.792;2024-01-27T06:16:50;11.40;;;1.20;;
1436;SDS011;712;51.026;13.792;2024-01-27T06:19:16;11.32;;;1.00;;
1436;SDS011;712;51.026;13.792;2024-01-27T06:21:41;13.32;;;1.08;;
1436;SDS011;712;51.026;13.792;2024-01-27T06:24:06;12.68;;;1.50;;
1436;SDS011;712;51.026;13.792;2024-01-27T06:26:31;11.63;;;1.10;;
1436;SDS011;712;51.026;13.792;2024-01-27T06:28:56;9.02;;;1.13;;
1436;SDS011;712;51.026;13.792;2024-01-27T06:31:21;11.00;;;1.30;;
1436;SDS011;712;51.026;13.792;2024-01-27T06:33:47;10.17;;;1.10;;
1436;SDS011;712;51.026;13.792;2024-01-27T06:36:12;11.60;;;1.47;;
1436;SDS011;712;51.026;13.792;2024-01-27T06:38:37;9.65;;;1.48;;
1436;SDS011;712;51.026;13.792;2024-01-27T06:41:02;15.20;;;1.30;;
1436;SDS011;712;51.026;13.792;2024-01-27T06:43:28;13.07;;;1.20;;
1436;SDS011;712;51.026;13.792;2024-01-27T06:45:53;6.78;;;0.95;;
1436;SDS011;712;51.026;13.792;2024-01-27T06:48:19;8.70;;;1.00;;
1436;SDS011;712;51.026;13.792;2024-01-27T06:50:45;8.75;;;1.50;;
1436;SDS011;712;51.026;13.792;2024-01-27T06:53:10;7.53;;;1.30;;
1436;SDS011;712;51.026;13.792;2024-01-27T06:55:35;8.80;;;1.45;;
1436;SDS011;712;51.026;13.792;2024-01-27T06:58:00;10.53;;;1.40;;
1436;SDS011;712;51.026;13.792;2024-01-27T07:00:25;13.83;;;2.57;;
1436;SDS011;712;51.026;13.792;2024-01-27T07:02:50;13.45;;;1.77;;
1436;SDS011;712;51.026;13.792;2024-01-27T07:05:16;10.20;;;1.00;;
1436;SDS011;712;51.026;13.792;2024-01-27T07:07:41;14.10;;;1.93;;
1436;SDS011;712;51.026;13.792;2024-01-27T07:10:06;11.73;;;1.00;;
1436;SDS011;712;51.026;13.792;2024-01-27T07:12:34;8.88;;;1.10;;
1436;SDS011;712;51.026;13.792;2024-01-27T07:14:59;12.35;;;1.50;;
1436;SDS011;712;51.026;13.792;2024-01-27T07:17:26;10.68;;;1.17;;
1436;SDS011;712;51.026;13.792;2024-01-27T07:19:51;10.73;;;1.90;;
1436;SDS011;712;51.026;13.792;2024-01-27T07:22:16;10.05;;;1.70;;
1436;SDS011;712;51.026;13.792;2024-01-27T07:24:41;11.47;;;1.70;;
1436;SDS011;712;51.026;13.792;2024-01-27T07:27:06;11.00;;;1.67;;
1436;SDS011;712;51.026;13.792;2024-01-27T07:29:31;12.17;;;1.40;;
1436;SDS011;712;51.026;13.792;2024-01-27T07:31:57;9.87;;;1.40;;
1436;SDS011;712;51.026;13.792;2024-01-27T07:34:22;13.63;;;1.70;;
1436;SDS011;712;51.026;13.792;2024-01-27T07:36:47;13.30;;;1.33;;
1436;SDS011;712;51.026;13.792;2024-01-27T07:39:14;10.95;;;1.30;;
1436;SDS011;712;51.026;13.792;2024-01-27T07:41:39;6.70;;;1.40;;
1436;SDS011;712;51.026;13.792;2024-01-27T07:44:07;6.93;;;1.30;;
1436;SDS011;712;51.026;13.792;2024-01-27T07:46:34;11.15;;;1.35;;
1436;SDS011;712;51.026;13.792;2024-01-27T07:49:01;14.82;;;1.45;;
1436;SDS011;712;51.026;13.792;2024-01-27T07:51:27;12.80;;;1.23;;
1436;SDS011;712;51.026;13.792;2024-01-27T07:53:52;14.73;;;1.70;;
1436;SDS011;712;51.026;13.792;2024-01-27T07:56:18;9.55;;;1.52;;
1436;SDS011;712;51.026;13.792;2024-01-27T07:58:43;13.40;;;2.60;;
1436;SDS011;712;51.026;13.792;2024-01-27T08:01:08;10.95;;;1.50;;
1436;SDS011;712;51.026;13.792;2024-01-27T08:03:33;9.40;;;1.30;;
1436;SDS011;712;51.026;13.792;2024-01-27T08:05:58;8.93;;;1.10;;
1436;SDS011;712;51.026;13.792;2024-01-27T08:08:24;9.27;;;1.42;;
1436;SDS011;712;51.026;13.792;2024-01-27T08:10:49;13.60;;;1.63;;
1436;SDS011;712;51.026;13.792;2024-01-27T08:13:14;14.48;;;1.83;;
1436;SDS011;712;51.026;13.792;2024-01-27T08:15:40;13.80;;;1.63;;
1436;SDS011;712;51.026;13.792;2024-01-27T08:18:05;10.25;;;1.40;;
1436;SDS011;712;51.026;13.792;2024-01-27T08:20:30;8.98;;;1.33;;
1436;SDS011;712;51.026;13.792;2024-01-27T08:22:55;7.38;;;1.35;;
1436;SDS011;712;51.026;13.792;2024-01-27T08:25:20;8.27;;;1.23;;
1436;SDS011;712;51.026;13.792;2024-01-27T08:27:45;10.10;;;1.30;;
1436;SDS011;712;51.026;13.792;2024-01-27T08:30:11;10.95;;;1.60;;
1436;SDS011;712;51.026;13.792;2024-01-27T08:32:36;13.65;;;1.15;;
1436;SDS011;712;51.026;13.792;2024-01-27T08:35:01;11.67;;;1.43;;
1436;SDS011;712;51.026;13.792;2024-01-27T08:37:27;10.80;;;1.23;;
1436;SDS011;712;51.026;13.792;2024-01-27T08:39:52;6.10;;;1.20;;
1436;SDS011;712;51.026;13.792;2024-01-27T08:42:17;12.20;;;1.80;;
1436;SDS011;712;51.026;13.792;2024-01-27T08:44:42;16.70;;;1.40;;
1436;SDS011;712;51.026;13.792;2024-01-27T08:47:07;10.68;;;1.60;;
1436;SDS011;712;51.026;13.792;2024-01-27T08:49:33;14.60;;;1.80;;
1436;SDS011;712;51.026;13.792;2024-01-27T08:51:58;8.00;;;1.33;;
1436;SDS011;712;51.026;13.792;2024-01-27T08:54:23;9.73;;;1.33;;
1436;SDS011;712;51.026;13.792;2024-01-27T08:56:48;12.05;;;2.03;;
1436;SDS011;712;51.026;13.792;2024-01-27T08:59:13;9.90;;;1.30;;
1436;SDS011;712;51.026;13.792;2024-01-27T09:01:39;10.30;;;1.40;;
1436;SDS011;712;51.026;13.792;2024-01-27T09:04:04;12.00;;;1.50;;
1436;SDS011;712;51.026;13.792;2024-01-27T09:06:29;11.83;;;1.87;;
1436;SDS011;712;51.026;13.792;2024-01-27T09:08:54;9.70;;;1.40;;
1436;SDS011;712;51.026;13.792;2024-01-27T09:11:19;10.15;;;1.30;;
1436;SDS011;712;51.026;13.792;2024-01-27T09:13:46;14.43;;;1.65;;
1436;SDS011;712;51.026;13.792;2024-01-27T09:16:13;10.15;;;1.55;;
1436;SDS011;712;51.026;13.792;2024-01-27T09:18:39;10.00;;;1.63;;
1436;SDS011;712;51.026;13.792;2024-01-27T09:21:04;11.50;;;1.83;;
1436;SDS011;712;51.026;13.792;2024-01-27T09:23:29;11.63;;;1.58;;
1436;SDS011;712;51.026;13.792;2024-01-27T09:25:55;14.03;;;1.60;;
1436;SDS011;712;51.026;13.792;2024-01-27T09:28:20;10.67;;;1.43;;
1436;SDS011;712;51.026;13.792;2024-01-27T09:30:45;11.83;;;1.43;;
1436;SDS011;712;51.026;13.792;2024-01-27T09:33:10;7.82;;;1.60;;
1436;SDS011;712;51.026;13.792;2024-01-27T09:35:35;12.50;;;1.60;;
1436;SDS011;712;51.026;13.792;2024-01-27T09:38:00;16.80;;;1.40;;
1436;SDS011;712;51.026;13.792;2024-01-27T09:40:25;10.55;;;1.42;;
1436;SDS011;712;51.026;13.792;2024-01-27T09:42:51;16.35;;;1.90;;
1436;SDS011;712;51.026;13.792;2024-01-27T09:45:18;10.63;;;1.52;;
1436;SDS011;712;51.026;13.792;2024-01-27T09:47:44;17.13;;;1.92;;
1436;SDS011;712;51.026;13.792;2024-01-27T09:50:10;13.55;;;1.88;;
1436;SDS011;712;51.026;13.792;2024-01-27T09:52:36;9.30;;;1.50;;
1436;SDS011;712;51.026;13.792;2024-01-27T09:55:01;8.90;;;1.40;;
1436;SDS011;712;51.026;13.792;2024-01-27T09:57:27;17.87;;;2.77;;
1436;SDS011;712;51.026;13.792;2024-01-27T09:59:52;13.38;;;2.00;;
1436;SDS011;712;51.026;13.792;2024-01-27T10:02:17;13.03;;;2.27;;
1436;SDS011;712;51.026;13.792;2024-01-27T10:04:43;12.25;;;2.45;;
1436;SDS011;712;51.026;13.792;2024-01-27T10:07:09;11.60;;;2.03;;
1436;SDS011;712;51.026;13.792;2024-01-27T10:09:34;13.60;;;1.70;;
1436;SDS011;712;51.026;13.792;2024-01-27T10:12:00;10.70;;;1.80;;
1436;SDS011;712;51.026;13.792;2024-01-27T10:14:26;14.13;;;1.95;;
1436;SDS011;712;51.026;13.792;2024-01-27T10:16:51;12.98;;;1.65;;
1436;SDS011;712;51.026;13.792;2024-01-27T10:19:17;18.90;;;2.00;;
1436;SDS011;712;51.026;13.792;2024-01-27T10:21:42;11.70;;;1.95;;
1436;SDS011;712;51.026;13.792;2024-01-27T10:24:08;11.30;;;1.40;;
1436;SDS011;712;51.026;13.792;2024-01-27T10:29:00;11.50;;;1.60;;
1436;SDS011;712;51.026;13.792;2024-01-27T10:31:29;11.25;;;1.85;;
1436;SDS011;712;51.026;13.792;2024-01-27T10:33:55;15.93;;;2.08;;
1436;SDS011;712;51.026;13.792;2024-01-27T10:36:38;10.38;;;1.88;;
1436;SDS011;712;51.026;13.792;2024-01-27T10:39:13;10.48;;;1.77;;
1436;SDS011;712;51.026;13.792;2024-01-27T10:41:38;9.57;;;1.83;;
1436;SDS011;712;51.026;13.792;2024-01-27T10:44:04;16.08;;;2.15;;
1436;SDS011;712;51.026;13.792;2024-01-27T10:46:30;10.88;;;1.95;;
1436;SDS011;712;51.026;13.792;2024-01-27T10:48:55;12.55;;;1.58;;
1436;SDS011;712;51.026;13.792;2024-01-27T10:51:30;12.23;;;1.83;;
1436;SDS011;712;51.026;13.792;2024-01-27T10:53:58;11.45;;;1.75;;
1436;SDS011;712;51.026;13.792;2024-01-27T10:56:25;14.48;;;1.77;;
1436;SDS011;712;51.026;13.792;2024-01-27T10:58:51;14.00;;;2.00;;
1436;SDS011;712;51.026;13.792;2024-01-27T11:01:17;10.83;;;1.77;;
1436;SDS011;712;51.026;13.792;2024-01-27T11:03:44;13.02;;;2.08;;
1436;SDS011;712;51.026;13.792;2024-01-27T11:06:09;12.13;;;1.80;;
1436;SDS011;712;51.026;13.792;2024-01-27T11:08:37;11.82;;;1.67;;
1436;SDS011;712;51.026;13.792;2024-01-27T11:11:02;12.93;;;2.50;;
1436;SDS011;712;51.026;13.792;2024-01-27T11:13:28;15.52;;;2.33;;
1436;SDS011;712;51.026;13.792;2024-01-27T11:15:54;9.55;;;2.10;;
1436;SDS011;712;51.026;13.792;2024-01-27T11:18:20;12.75;;;2.08;;
1436;SDS011;712;51.026;13.792;2024-01-27T11:20:45;11.37;;;2.03;;
1436;SDS011;712;51.026;13.792;2024-01-27T11:23:11;13.93;;;1.87;;
1436;SDS011;712;51.026;13.792;2024-01-27T11:25:38;9.73;;;2.00;;
1436;SDS011;712;51.026;13.792;2024-01-27T11:28:10;13.23;;;2.78;;
1436;SDS011;712;51.026;13.792;2024-01-27T11:30:36;12.15;;;2.25;;
1436;SDS011;712;51.026;13.792;2024-01-27T11:33:04;12.15;;;1.70;;
1436;SDS011;712;51.026;13.792;2024-01-27T11:35:29;10.45;;;2.05;;
1436;SDS011;712;51.026;13.792;2024-01-27T11:37:55;15.07;;;1.90;;
1436;SDS011;712;51.026;13.792;2024-01-27T11:40:20;11.50;;;2.03;;
1436;SDS011;712;51.026;13.792;2024-01-27T11:42:58;14.47;;;2.00;;
1436;SDS011;712;51.026;13.792;2024-01-27T11:45:23;15.52;;;2.22;;
1436;SDS011;712;51.026;13.792;2024-01-27T11:47:49;10.60;;;1.80;;
1436;SDS011;712;51.026;13.792;2024-01-27T11:50:14;13.05;;;1.98;;
1436;SDS011;712;51.026;13.792;2024-01-27T11:52:41;9.70;;;1.90;;
1436;SDS011;712;51.026;13.792;2024-01-27T11:55:06;12.63;;;2.00;;
1436;SDS011;712;51.026;13.792;2024-01-27T11:57:31;10.43;;;2.10;;
1436;SDS011;712;51.026;13.792;2024-01-27T11:59:57;11.98;;;2.10;;
1436;SDS011;712;51.026;13.792;2024-01-27T12:02:22;12.50;;;2.33;;
1436;SDS011;712;51.026;13.792;2024-01-27T12:04:47;9.10;;;1.70;;
1436;SDS011;712;51.026;13.792;2024-01-27T12:07:13;17.50;;;1.92;;
1436;SDS011;712;51.026;13.792;2024-01-27T12:09:39;10.05;;;1.80;;
1436;SDS011;712;51.026;13.792;2024-01-27T12:12:04;10.63;;;1.85;;
1436;SDS011;712;51.026;13.792;2024-01-27T12:14:44;9.55;;;1.70;;
1436;SDS011;712;51.026;13.792;2024-01-27T12:17:09;15.50;;;2.30;;
1436;SDS011;712;51.026;13.792;2024-01-27T12:19:35;11.65;;;1.95;;
1436;SDS011;712;51.026;13.792;2024-01-27T12:22:00;14.93;;;2.20;;
1436;SDS011;712;51.026;13.792;2024-01-27T12:24:25;13.18;;;2.15;;
1436;SDS011;712;51.026;13.792;2024-01-27T12:26:50;12.02;;;2.10;;
1436;SDS011;712;51.026;13.792;2024-01-27T12:29:16;9.10;;;1.55;;
1436;SDS011;712;51.026;13.792;2024-01-27T12:31:41;10.05;;;1.70;;
1436;SDS011;712;51.026;13.792;2024-01-27T12:34:06;11.77;;;2.53;;
1436;SDS011;712;51.026;13.792;2024-01-27T12:36:32;10.80;;;1.90;;
1436;SDS011;712;51.026;13.792;2024-01-27T12:38:57;13.37;;;1.83;;
1436;SDS011;712;51.026;13.792;2024-01-27T12:41:24;10.50;;;1.75;;
1436;SDS011;712;51.026;13.792;2024-01-27T12:43:49;12.45;;;1.88;;
1436;SDS011;712;51.026;13.792;2024-01-27T12:46:14;12.23;;;1.63;;
1436;SDS011;712;51.026;13.792;2024-01-27T12:48:41;8.85;;;1.85;;
1436;SDS011;712;51.026;13.792;2024-01-27T12:51:06;9.97;;;2.00;;
1436;SDS011;712;51.026;13.792;2024-01-27T12:53:32;10.63;;;1.63;;
1436;SDS011;712;51.026;13.792;2024-01-27T12:55:57;11.23;;;1.90;;
1436;SDS011;712;51.026;13.792;2024-01-27T12:58:22;14.60;;;1.80;;
1436;SDS011;712;51.026;13.792;2024-01-27T13:00:47;14.73;;;2.00;;
1436;SDS011;712;51.026;13.792;2024-01-27T13:03:12;11.33;;;1.77;;
1436;SDS011;712;51.026;13.792;2024-01-27T13:05:38;11.00;;;1.57;;
1436;SDS011;712;51.026;13.792;2024-01-27T13:08:03;13.10;;;2.00;;
1436;SDS011;712;51.026;13.792;2024-01-27T13:10:29;10.77;;;1.95;;
1436;SDS011;712;51.026;13.792;2024-01-27T13:12:54;11.60;;;1.67;;
1436;SDS011;712;51.026;13.792;2024-01-27T13:15:20;11.55;;;1.73;;
1436;SDS011;712;51.026;13.792;2024-01-27T13:17:46;8.88;;;1.60;;
1436;SDS011;712;51.026;13.792;2024-01-27T13:20:12;12.60;;;2.10;;
1436;SDS011;712;51.026;13.792;2024-01-27T13:22:37;12.10;;;1.67;;
1436;SDS011;712;51.026;13.792;2024-01-27T13:25:02;13.05;;;2.85;;
1436;SDS011;712;51.026;13.792;2024-01-27T13:27:29;13.05;;;2.22;;
1436;SDS011;712;51.026;13.792;2024-01-27T13:29:54;10.73;;;1.83;;
1436;SDS011;712;51.026;13.792;2024-01-27T13:32:19;10.20;;;2.03;;
1436;SDS011;712;51.026;13.792;2024-01-27T13:34:44;14.23;;;1.75;;
1436;SDS011;712;51.026;13.792;2024-01-27T13:37:10;7.90;;;1.52;;
1436;SDS011;712;51.026;13.792;2024-01-27T13:39:35;9.98;;;1.42;;
1436;SDS011;712;51.026;13.792;2024-01-27T13:42:00;9.57;;;1.40;;
1436;SDS011;712;51.026;13.792;2024-01-27T13:44:26;12.43;;;2.00;;
1436;SDS011;712;51.026;13.792;2024-01-27T13:46:51;10.17;;;1.70;;
1436;SDS011;712;51.026;13.792;2024-01-27T13:49:16;8.82;;;1.80;;
1436;SDS011;712;51.026;13.792;2024-01-27T13:51:41;12.83;;;1.90;;
1436;SDS011;712;51.026;13.792;2024-01-27T13:54:07;11.90;;;1.42;;
1436;SDS011;712;51.026;13.792;2024-01-27T13:56:34;10.60;;;1.63;;
1436;SDS011;712;51.026;13.792;2024-01-27T13:58:59;10.93;;;1.50;;
1436;SDS011;712;51.026;13.792;2024-01-27T14:01:24;9.73;;;1.57;;
1436;SDS011;712;51.026;13.792;2024-01-27T14:03:49;13.20;;;1.70;;
1436;SDS011;712;51.026;13.792;2024-01-27T14:06:14;10.82;;;1.60;;
1436;SDS011;712;51.026;13.792;2024-01-27T14:08:40;9.77;;;1.77;;
1436;SDS011;712;51.026;13.792;2024-01-27T14:11:05;11.20;;;1.70;;
1436;SDS011;712;51.026;13.792;2024-01-27T14:13:30;11.40;;;1.70;;
1436;SDS011;712;51.026;13.792;2024-01-27T14:15:55;10.63;;;1.50;;
1436;SDS011;712;51.026;13.792;2024-01-27T14:18:21;12.63;;;1.93;;
1436;SDS011;712;51.026;13.792;2024-01-27T14:20:46;15.25;;;1.95;;
1436;SDS011;712;51.026;13.792;2024-01-27T14:23:12;10.30;;;1.75;;
1436;SDS011;712;51.026;13.792;2024-01-27T14:25:37;9.27;;;1.60;;
1436;SDS011;712;51.026;13.792;2024-01-27T14:28:03;10.98;;;1.38;;
1436;SDS011;712;51.026;13.792;2024-01-27T14:30:28;8.35;;;2.00;;
1436;SDS011;712;51.026;13.792;2024-01-27T14:32:53;11.52;;;1.83;;
1436;SDS011;712;51.026;13.792;2024-01-27T14:35:18;9.55;;;1.63;;
1436;SDS011;712;51.026;13.792;2024-01-27T14:37:43;13.10;;;2.00;;
1436;SDS011;712;51.026;13.792;2024-01-27T14:40:09;13.48;;;1.90;;
1436;SDS011;712;51.026;13.792;2024-01-27T14:42:35;12.07;;;1.67;;
1436;SDS011;712;51.026;13.792;2024-01-27T14:45:01;8.02;;;1.75;;
1436;SDS011;712;51.026;13.792;2024-01-27T14:47:26;10.45;;;1.67;;
1436;SDS011;712;51.026;13.792;2024-01-27T14:49:51;13.30;;;1.90;;
1436;SDS011;712;51.026;13.792;2024-01-27T14:52:16;10.52;;;1.90;;
1436;SDS011;712;51.026;13.792;2024-01-27T14:54:42;9.52;;;1.95;;
1436;SDS011;712;51.026;13.792;2024-01-27T14:57:07;7.60;;;1.60;;
1436;SDS011;712;51.026;13.792;2024-01-27T14:59:35;7.95;;;1.45;;